Decatur, GA

12:17 AM EST on December 23, 2014 (GMT -0500)
The Hartsfield Atlanta International | Change Station
CLOSE
Current Station
Airport
Location: Atlanta,
Elevation: 1024 ft
Nearby Weather Stations

Elev 1024 ft 33.63 °N, 84.44 °W | Updated 25 minutes ago

Overcast
Overcast
43 °F
Feels Like 38 °F
N
9
Wind Variable Wind from ESE

Today
High -- | Low -- °F
--% Chance of Precip.
Yesterday
High -- | Low -- °F
Precip. -- in
7:39 AM 5:33 PM
New Moon, 2% visible
Pressure 29.94 in
Visibility 1.0 miles
Clouds Overcast 300 ft
Windchill 38 °F
Dew Point 42 °F
Humidity 97%
Rainfall 0.44 in
Snow Depth Not available.
UV 0 out of 12
Pollen 1.40 out of 12
Air Quality Not available.
Flu Activity Not available.
METAR KATL 230452Z 11008KT 1SM -DZ BR OVC003 06/06 A2993 RMK AO2 SFC VIS 1 1/2 DZB47 SLP138 P0000 T00610056 400890061

More Conditions Fewer Conditions

Pressure 29.94 in
Visibility 1.0 miles
Clouds Overcast 300 ft
Windchill 38 °F
Dew Point 42 °F
Humidity 97%
Rainfall 0.44 in
Snow Depth Not available.
UV 0 out of 12
Pollen 1.40 out of 12
Air Quality Not available.
Flu Activity Not available.
METAR KATL 230452Z 11008KT 1SM -DZ BR OVC003 06/06 A2993 RMK AO2 SFC VIS 1 1/2 DZB47 SLP138 P0000 T00610056 400890061

More Conditions Fewer Conditions

10-Day Weather Forecast

Almanac

Astronomy

Dec. 23, 2014 Rise Set
Actual Time
Civil Twilight
Nautical Twilight
Astronomical Twilight
Moon
Length of Visible Light
Length of Day
Tomorrow will be .
, % of the Moon is Illuminated

Today's Extremes

State Highs State Lows

Community

WunderPhotos

Upload Photos

1,779,781 photos uploaded!

WunderBlogs® & News

Nearby

Air Quality

  Air Quality AQ Index Pollutant
Not available.

Snow Depth

Station Depth Elevation

Earthquake Activity

City Distance Mag. Time & Date
Minimum magnitude displayed is 2.5.

Coastal Water Temperatures

Place Temperature

Nearby Weather Stations